CheckWX is a tool to help pilots better visualize weather data.  It is not intended as a substitute for an official pre-flight weather briefing.

18:18:38 UTC

FKKD TAF
Douala International Airport
Douala, Cameroon
TAF FKKD 271100Z 2712/2824 VRB06KT 9999 BKN016 FEW020CB TEMPO 2718/2724 TS BKN013 FEW016CB PROB30 TEMPO 2720/2724 4000 TSRA

May-27@
12:00 UTC

May-27 @ 12:00 UTC

May-29@
00:00 UTC

May-29 @ 00:00 UTC

TAF FKKD 271100Z 2712/2824 VRB06KT 9999 BKN016 FEW020CB
Wind
  • Variable at 6 KTS
Cloud Levels
  • Broken at 1,600' AGL
  • Few at 2,000' AGL

May-27@
18:00 UTC

May-27 @ 18:00 UTC

May-28@
00:00 UTC

May-28 @ 00:00 UTC

TEMPO 2718/2724 TS BKN013 FEW016CB

Expired

Conditions
Thunderstorm
Cloud Levels
  • Broken at 1,300' AGL
  • Few at 1,600' AGL

May-27@
20:00 UTC

May-27 @ 20:00 UTC

May-28@
00:00 UTC

May-28 @ 00:00 UTC

PROB30 TEMPO 2720/2724 4000 TSRA

Expired

Conditions
Thunderstorm, Rain
Cloud Levels